createdAt,value
2023-04-22T00:02:06.656Z,10.85
2023-04-22T00:04:52.199Z,11.88
2023-04-22T00:07:37.809Z,10.55
2023-04-22T00:10:23.224Z,10.18
2023-04-22T00:13:08.524Z,10.98
2023-04-22T00:15:54.158Z,10.63
2023-04-22T00:18:39.593Z,10.77
2023-04-22T00:21:24.980Z,11.00
2023-04-22T00:24:10.427Z,10.73
2023-04-22T00:26:55.920Z,10.73
2023-04-22T00:29:41.565Z,11.40
2023-04-22T00:32:26.931Z,11.32
2023-04-22T00:35:12.276Z,11.55
2023-04-22T00:37:58.401Z,12.13
2023-04-22T00:40:43.715Z,12.07
2023-04-22T00:43:29.246Z,11.85
2023-04-22T00:46:16.515Z,11.48
2023-04-22T00:49:02.337Z,10.95
2023-04-22T00:51:47.388Z,12.07
2023-04-22T00:54:35.260Z,11.70
2023-04-22T00:57:20.782Z,10.82
2023-04-22T01:00:09.668Z,11.88
2023-04-22T01:02:55.763Z,12.45
2023-04-22T01:05:41.701Z,11.43
2023-04-22T01:08:31.803Z,10.73
2023-04-22T01:11:17.049Z,10.75
2023-04-22T01:14:03.758Z,10.57
2023-04-22T01:16:50.439Z,9.68
2023-04-22T01:19:35.772Z,9.05
2023-04-22T01:22:22.612Z,8.75
2023-04-22T01:25:09.172Z,8.23
2023-04-22T01:27:55.173Z,8.43
2023-04-22T01:30:41.649Z,8.20
2023-04-22T01:33:27.224Z,8.65
2023-04-22T01:36:13.300Z,8.45
2023-04-22T01:38:59.188Z,8.40
2023-04-22T01:41:45.879Z,7.88
2023-04-22T01:44:31.317Z,8.23
2023-04-22T01:47:16.776Z,7.90
2023-04-22T01:50:02.091Z,8.48
2023-04-22T01:52:48.743Z,8.98
2023-04-22T01:55:36.053Z,9.70
2023-04-22T01:58:21.273Z,12.88
2023-04-22T02:01:09.280Z,11.65
2023-04-22T02:03:55.591Z,13.73
2023-04-22T02:06:41.845Z,12.20
2023-04-22T02:09:27.319Z,12.30
2023-04-22T02:12:12.691Z,11.70
2023-04-22T02:14:59.373Z,12.23
2023-04-22T02:17:46.200Z,12.15
2023-04-22T02:20:31.487Z,12.45
2023-04-22T02:23:17.051Z,13.32
2023-04-22T02:26:03.673Z,12.70
2023-04-22T02:28:49.176Z,13.05
2023-04-22T02:31:34.520Z,12.88
2023-04-22T02:34:20.340Z,13.00
2023-04-22T02:37:05.731Z,13.88
2023-04-22T02:39:51.218Z,13.98
2023-04-22T02:42:36.597Z,14.07
2023-04-22T02:45:22.508Z,14.27
2023-04-22T02:48:07.858Z,13.38
2023-04-22T02:50:54.342Z,13.48
2023-04-22T02:53:39.773Z,13.48
2023-04-22T02:56:26.010Z,14.18
2023-04-22T02:59:11.631Z,14.82
2023-04-22T03:01:57.037Z,15.55
2023-04-22T03:04:55.524Z,14.75
2023-04-22T03:07:41.925Z,15.88
2023-04-22T03:10:27.302Z,14.70
2023-04-22T03:13:14.252Z,15.48
2023-04-22T03:15:59.883Z,15.00
2023-04-22T03:18:45.659Z,16.63
2023-04-22T03:21:32.305Z,17.80
2023-04-22T03:24:18.682Z,17.00
2023-04-22T03:27:07.822Z,17.88
2023-04-22T03:29:53.154Z,18.02
2023-04-22T03:32:38.487Z,17.13
2023-04-22T03:35:49.235Z,15.93
2023-04-22T03:38:34.611Z,16.23
2023-04-22T03:41:20.161Z,15.07
2023-04-22T03:44:07.098Z,16.98
2023-04-22T03:46:54.070Z,15.77
2023-04-22T03:49:43.353Z,16.02
2023-04-22T03:52:28.523Z,15.40
2023-04-22T03:55:17.418Z,15.50
2023-04-22T03:58:03.393Z,15.63
2023-04-22T04:00:49.399Z,15.65
2023-04-22T04:03:36.602Z,16.05
2023-04-22T04:06:22.313Z,14.80
2023-04-22T04:09:07.913Z,14.93
2023-04-22T04:11:53.775Z,16.23
2023-04-22T04:14:39.712Z,16.02
2023-04-22T04:17:25.746Z,15.70
2023-04-22T04:20:12.524Z,15.30
2023-04-22T04:22:58.706Z,16.27
2023-04-22T04:25:45.517Z,15.55
2023-04-22T04:28:33.050Z,14.82
2023-04-22T04:31:19.663Z,14.82
2023-04-22T04:34:05.526Z,14.52
2023-04-22T04:36:51.156Z,14.65
2023-04-22T04:39:45.747Z,15.65
2023-04-22T04:42:33.482Z,16.10
2023-04-22T04:45:24.462Z,15.38
2023-04-22T04:48:10.542Z,15.10
2023-04-22T04:50:59.406Z,15.23
2023-04-22T04:53:47.807Z,13.63
2023-04-22T04:56:34.568Z,14.73
2023-04-22T04:59:20.242Z,14.93
2023-04-22T05:02:06.408Z,17.00
2023-04-22T05:04:52.437Z,15.85
2023-04-22T05:07:38.193Z,17.42
2023-04-22T05:10:26.084Z,17.33
2023-04-22T05:13:11.768Z,16.85
2023-04-22T05:16:00.094Z,16.73
2023-04-22T05:18:45.992Z,17.42
2023-04-22T05:21:33.631Z,16.55
2023-04-22T05:24:18.936Z,17.58
2023-04-22T05:27:04.558Z,16.40
2023-04-22T05:29:50.932Z,16.30
2023-04-22T05:32:41.837Z,16.02
2023-04-22T05:35:27.567Z,15.43
2023-04-22T05:38:13.014Z,15.30
2023-04-22T05:41:00.199Z,14.73
2023-04-22T05:43:45.819Z,14.93
2023-04-22T05:46:35.385Z,14.35
2023-04-22T05:49:20.642Z,14.38
2023-04-22T05:52:31.246Z,15.07
2023-04-22T05:55:25.346Z,15.52
2023-04-22T05:58:11.784Z,14.52
2023-04-22T06:04:16.004Z,13.85
2023-04-22T06:07:01.690Z,14.55
2023-04-22T06:09:47.162Z,15.60
2023-04-22T06:12:34.534Z,14.98
2023-04-22T06:15:19.876Z,14.15
2023-04-22T06:18:05.750Z,14.18
2023-04-22T06:20:52.202Z,13.35
2023-04-22T06:23:37.818Z,13.30
2023-04-22T06:26:23.423Z,13.48
2023-04-22T06:29:08.733Z,13.68
2023-04-22T06:31:56.442Z,12.43
2023-04-22T06:34:42.636Z,12.38
2023-04-22T06:37:28.199Z,13.18
2023-04-22T06:40:14.769Z,12.25
2023-04-22T06:43:17.601Z,15.25
2023-04-22T06:46:38.858Z,14.07
2023-04-22T06:49:46.606Z,14.98
2023-04-22T06:52:55.363Z,14.23
2023-04-22T06:55:42.317Z,14.05
2023-04-22T06:58:28.247Z,13.77
2023-04-22T07:01:13.784Z,14.25
2023-04-22T07:04:00.348Z,14.07
2023-04-22T07:06:46.123Z,15.10
2023-04-22T07:09:32.017Z,15.02
2023-04-22T07:12:17.558Z,14.52
2023-04-22T07:15:03.082Z,14.27
2023-04-22T07:17:48.634Z,15.18
2023-04-22T07:20:34.197Z,13.23
2023-04-22T07:23:19.462Z,13.38
2023-04-22T07:26:05.008Z,13.38
2023-04-22T07:28:50.362Z,13.10
2023-04-22T07:31:36.585Z,13.43
2023-04-22T07:34:22.161Z,13.23
2023-04-22T07:37:09.296Z,13.38
2023-04-22T07:39:54.399Z,12.27
2023-04-22T07:42:40.251Z,12.90
2023-04-22T07:45:25.305Z,13.68
2023-04-22T07:48:10.848Z,13.90
2023-04-22T07:50:56.147Z,13.60
2023-04-22T07:53:41.645Z,13.50
2023-04-22T07:56:27.298Z,13.90
2023-04-22T07:59:12.427Z,12.18
2023-04-22T08:01:57.898Z,12.27
2023-04-22T08:04:43.610Z,12.80
2023-04-22T08:07:33.045Z,12.77
2023-04-22T08:10:18.734Z,11.98
2023-04-22T08:13:04.365Z,10.90
2023-04-22T08:15:49.899Z,10.55
2023-04-22T08:18:35.606Z,10.00
2023-04-22T08:21:21.041Z,9.45
2023-04-22T08:24:06.753Z,10.65
2023-04-22T08:26:51.849Z,10.45
2023-04-22T08:29:38.063Z,10.27
2023-04-22T08:32:26.419Z,9.98
2023-04-22T08:35:11.745Z,10.65
2023-04-22T08:37:57.303Z,10.30
2023-04-22T08:40:43.063Z,11.02
2023-04-22T08:43:28.434Z,11.10
2023-04-22T08:46:15.588Z,12.02
2023-04-22T08:49:03.923Z,10.88
2023-04-22T08:51:49.810Z,10.82
2023-04-22T08:54:37.355Z,11.25
2023-04-22T08:57:23.587Z,11.38
2023-04-22T09:00:09.877Z,11.05
2023-04-22T09:02:56.426Z,11.05
2023-04-22T09:05:43.478Z,11.57
2023-04-22T09:08:29.375Z,10.90
2023-04-22T09:11:15.146Z,12.85
2023-04-22T09:14:00.304Z,11.40
2023-04-22T09:16:49.874Z,11.95
2023-04-22T09:19:35.394Z,13.05
2023-04-22T09:22:20.805Z,11.98
2023-04-22T09:25:07.710Z,11.50
2023-04-22T09:27:58.132Z,11.38
2023-04-22T09:30:45.951Z,13.30
2023-04-22T09:33:31.750Z,12.50
2023-04-22T09:36:17.387Z,13.40
2023-04-22T09:39:04.945Z,12.45
2023-04-22T09:41:55.310Z,12.07
2023-04-22T09:44:40.653Z,11.63
2023-04-22T09:47:26.483Z,11.77
2023-04-22T09:50:11.985Z,12.40
2023-04-22T09:53:05.562Z,11.27
2023-04-22T09:55:53.678Z,12.50
2023-04-22T09:58:39.650Z,12.75
2023-04-22T10:01:42.513Z,11.68
2023-04-22T10:04:28.495Z,11.73
2023-04-22T10:07:15.190Z,10.88
2023-04-22T10:10:00.327Z,10.23
2023-04-22T10:12:47.329Z,8.90
2023-04-22T10:15:45.731Z,8.98
2023-04-22T10:18:33.095Z,9.70
2023-04-22T10:21:20.051Z,7.15
2023-04-22T10:24:05.906Z,8.68
2023-04-22T10:26:57.557Z,7.20
2023-04-22T10:29:43.515Z,8.80
2023-04-22T10:32:29.222Z,9.15
2023-04-22T10:35:15.160Z,8.45
2023-04-22T10:38:00.491Z,8.35
2023-04-22T10:41:01.718Z,9.10
2023-04-22T10:43:48.801Z,8.15
2023-04-22T10:46:37.751Z,7.68
2023-04-22T10:49:25.394Z,9.00
2023-04-22T10:52:28.244Z,6.32
2023-04-22T10:55:13.338Z,7.72
2023-04-22T10:57:59.650Z,6.88
2023-04-22T11:00:53.238Z,6.10
2023-04-22T11:03:40.056Z,6.05
2023-04-22T11:06:27.838Z,6.70
2023-04-22T11:09:13.092Z,6.72
2023-04-22T11:12:38.258Z,6.55
2023-04-22T11:15:23.550Z,5.95
2023-04-22T11:18:11.831Z,5.80
2023-04-22T11:20:57.169Z,5.93
2023-04-22T11:23:51.929Z,6.57
2023-04-22T11:26:37.555Z,6.47
2023-04-22T11:29:23.161Z,6.00
2023-04-22T11:32:11.611Z,5.60
2023-04-22T11:34:57.885Z,6.00
2023-04-22T11:37:56.793Z,5.50
2023-04-22T11:40:46.112Z,6.10
2023-04-22T11:43:32.736Z,6.85
2023-04-22T11:46:29.492Z,6.75
2023-04-22T11:49:16.049Z,6.10
2023-04-22T11:52:01.154Z,5.75
2023-04-22T11:54:46.786Z,5.50
2023-04-22T11:57:36.329Z,5.38
2023-04-22T12:00:23.500Z,6.40
2023-04-22T12:03:15.370Z,7.35
2023-04-22T12:06:03.781Z,10.00
2023-04-22T12:08:49.971Z,10.25
2023-04-22T12:11:35.435Z,10.75
2023-04-22T12:14:20.835Z,11.20
2023-04-22T12:17:09.475Z,10.90
2023-04-22T12:19:55.736Z,12.00
2023-04-22T12:22:41.166Z,11.90
2023-04-22T12:25:27.495Z,13.65
2023-04-22T12:28:12.635Z,15.32
2023-04-22T12:30:57.992Z,15.00
2023-04-22T12:33:44.472Z,15.35
2023-04-22T12:36:32.421Z,14.23
2023-04-22T12:39:18.978Z,15.38
2023-04-22T12:42:05.806Z,15.05
2023-04-22T12:44:51.028Z,18.55
2023-04-22T12:47:36.592Z,17.95
2023-04-22T12:50:21.870Z,18.73
2023-04-22T12:53:07.310Z,17.10
2023-04-22T12:55:52.722Z,16.75
2023-04-22T12:58:37.986Z,16.23
2023-04-22T13:01:23.560Z,16.50
2023-04-22T13:04:09.046Z,16.92
2023-04-22T13:06:57.025Z,21.88
2023-04-22T13:09:43.202Z,21.73
2023-04-22T13:12:28.608Z,19.13
2023-04-22T13:15:14.342Z,18.35
2023-04-22T13:17:59.855Z,17.02
2023-04-22T13:20:46.192Z,17.13
2023-04-22T13:23:32.552Z,16.23
2023-04-22T13:26:17.997Z,16.00
2023-04-22T13:29:03.576Z,16.48
2023-04-22T13:31:48.929Z,15.80
2023-04-22T13:34:34.649Z,15.35
2023-04-22T13:37:21.298Z,15.27
2023-04-22T13:40:08.301Z,15.45
2023-04-22T13:42:54.162Z,14.75
2023-04-22T13:45:40.941Z,15.25
2023-04-22T13:48:27.459Z,18.23
2023-04-22T13:51:13.059Z,18.50
2023-04-22T13:53:59.321Z,17.17
2023-04-22T13:56:44.694Z,19.80
2023-04-22T13:59:31.291Z,18.40
2023-04-22T14:02:16.826Z,19.70
2023-04-22T14:05:02.325Z,18.67
2023-04-22T14:07:47.773Z,17.15
2023-04-22T14:10:33.154Z,16.77
2023-04-22T14:13:19.015Z,18.73
2023-04-22T14:16:09.882Z,18.60
2023-04-22T14:18:55.909Z,18.40
2023-04-22T14:21:40.941Z,19.45
2023-04-22T14:24:26.868Z,18.95
2023-04-22T14:27:12.700Z,18.92
2023-04-22T14:29:58.957Z,19.58
2023-04-22T14:32:44.252Z,18.98
2023-04-22T14:35:29.697Z,19.73
2023-04-22T14:38:15.133Z,19.75
2023-04-22T14:41:00.518Z,19.17
2023-04-22T14:43:46.867Z,19.20
2023-04-22T14:46:32.055Z,22.67
2023-04-22T14:49:17.223Z,18.60
2023-04-22T14:52:02.723Z,22.90
2023-04-22T14:54:51.239Z,24.60
2023-04-22T14:57:38.262Z,26.00
2023-04-22T15:00:25.187Z,26.27
2023-04-22T15:03:10.989Z,24.17
2023-04-22T15:05:56.728Z,23.83
2023-04-22T15:08:42.138Z,22.90
2023-04-22T15:11:27.427Z,21.80
2023-04-22T15:14:13.606Z,21.42
2023-04-22T15:16:59.716Z,21.17
2023-04-22T15:19:45.585Z,21.00
2023-04-22T15:22:32.569Z,20.45
2023-04-22T15:25:18.548Z,20.60
2023-04-22T15:28:04.100Z,19.40
2023-04-22T15:30:50.226Z,17.73
2023-04-22T15:33:35.689Z,20.08
2023-04-22T15:36:21.866Z,19.08
2023-04-22T15:39:07.443Z,22.10
2023-04-22T15:41:53.102Z,21.80
2023-04-22T15:44:38.569Z,20.42
2023-04-22T15:47:24.575Z,21.33
2023-04-22T15:50:10.699Z,22.60
2023-04-22T15:52:56.035Z,22.48
2023-04-22T15:55:41.446Z,26.27
2023-04-22T15:58:28.902Z,24.27
2023-04-22T16:01:19.522Z,24.23
2023-04-22T16:04:05.616Z,22.60
2023-04-22T16:06:51.579Z,21.45
2023-04-22T16:09:36.903Z,21.75
2023-04-22T16:12:23.339Z,20.10
2023-04-22T16:15:10.134Z,22.25
2023-04-22T16:17:55.803Z,21.52
2023-04-22T16:20:41.510Z,19.00
2023-04-22T16:23:27.078Z,18.55
2023-04-22T16:26:12.076Z,17.15
2023-04-22T16:28:57.751Z,16.45
2023-04-22T16:31:42.880Z,17.65
2023-04-22T16:34:28.411Z,16.63
2023-04-22T16:37:14.806Z,15.52
2023-04-22T16:40:01.149Z,15.85
2023-04-22T16:42:46.535Z,13.73
2023-04-22T16:45:32.273Z,15.13
2023-04-22T16:48:17.373Z,15.40
2023-04-22T16:51:03.306Z,14.57
2023-04-22T16:53:48.877Z,14.77
2023-04-22T16:56:34.383Z,14.80
2023-04-22T16:59:19.814Z,13.70
2023-04-22T17:02:05.878Z,14.52
2023-04-22T17:04:51.583Z,14.20
2023-04-22T17:07:37.117Z,13.40
2023-04-22T17:10:22.533Z,14.27
2023-04-22T17:13:08.239Z,14.13
2023-04-22T17:15:53.687Z,15.32
2023-04-22T17:18:38.856Z,14.00
2023-04-22T17:21:25.163Z,14.45
2023-04-22T17:24:10.518Z,14.88
2023-04-22T17:26:55.963Z,14.75
2023-04-22T17:29:41.889Z,15.25
2023-04-22T17:32:27.359Z,15.00
2023-04-22T17:35:12.815Z,15.75
2023-04-22T17:37:58.144Z,14.43
2023-04-22T17:40:43.711Z,13.88
2023-04-22T17:43:29.524Z,13.52
2023-04-22T17:46:15.053Z,14.40
2023-04-22T17:49:00.879Z,13.85
2023-04-22T17:51:46.467Z,14.65
2023-04-22T17:54:32.025Z,14.90
2023-04-22T17:57:17.253Z,13.95
2023-04-22T18:00:03.572Z,14.43
2023-04-22T18:02:53.608Z,16.05
2023-04-22T18:05:43.273Z,14.15
2023-04-22T18:08:28.637Z,15.25
2023-04-22T18:11:14.094Z,14.90
2023-04-22T18:13:59.619Z,14.15
2023-04-22T18:16:45.117Z,14.93
2023-04-22T18:19:30.414Z,13.23
2023-04-22T18:22:18.126Z,14.35
2023-04-22T18:25:03.617Z,14.63
2023-04-22T18:27:50.651Z,14.73
2023-04-22T18:30:36.268Z,14.27
2023-04-22T18:33:21.323Z,14.05
2023-04-22T18:36:06.945Z,14.15
2023-04-22T18:38:52.329Z,13.50
2023-04-22T18:41:39.401Z,13.00
2023-04-22T18:44:24.734Z,12.75
2023-04-22T18:47:10.203Z,13.05
2023-04-22T18:49:56.007Z,13.13
2023-04-22T18:52:42.323Z,13.80
2023-04-22T18:55:27.490Z,12.95
2023-04-22T18:58:13.239Z,13.38
2023-04-22T19:00:58.881Z,12.75
2023-04-22T19:03:45.736Z,12.85
2023-04-22T19:06:32.047Z,13.32
2023-04-22T19:09:17.302Z,12.63
2023-04-22T19:12:02.856Z,13.02
2023-04-22T19:14:48.619Z,12.55
2023-04-22T19:17:34.714Z,12.43
2023-04-22T19:20:20.714Z,11.15
2023-04-22T19:23:06.041Z,11.65
2023-04-22T19:25:51.744Z,14.52
2023-04-22T19:28:37.460Z,13.75
2023-04-22T19:31:22.670Z,13.30
2023-04-22T19:34:08.683Z,14.90
2023-04-22T19:36:54.540Z,14.73
2023-04-22T19:39:40.177Z,15.13
2023-04-22T19:42:27.214Z,14.43
2023-04-22T19:45:12.961Z,12.98
2023-04-22T19:47:58.608Z,13.70
2023-04-22T19:50:44.773Z,13.48
2023-04-22T19:53:31.217Z,13.32
2023-04-22T19:56:16.879Z,12.40
2023-04-22T19:59:02.474Z,12.75
2023-04-22T20:01:48.331Z,12.20
2023-04-22T20:04:33.811Z,11.98
2023-04-22T20:07:19.837Z,11.40
2023-04-22T20:10:07.748Z,12.43
2023-04-22T20:12:53.790Z,12.88
2023-04-22T20:15:39.118Z,11.93
2023-04-22T20:18:27.003Z,13.40
2023-04-22T20:21:13.801Z,13.70
2023-04-22T20:24:01.673Z,13.20
2023-04-22T20:26:49.994Z,14.18
2023-04-22T20:29:38.195Z,14.50
2023-04-22T20:32:24.653Z,15.10
2023-04-22T20:35:15.210Z,15.18
2023-04-22T20:38:02.440Z,15.60
2023-04-22T20:40:48.656Z,14.57
2023-04-22T20:43:35.315Z,14.48
2023-04-22T20:46:23.354Z,13.95
2023-04-22T20:49:09.003Z,14.80
2023-04-22T20:51:56.240Z,14.85
2023-04-22T20:54:41.410Z,13.68
2023-04-22T20:57:26.954Z,14.75
2023-04-22T21:00:12.771Z,14.77
2023-04-22T21:03:00.359Z,14.10
2023-04-22T21:05:46.844Z,14.68
2023-04-22T21:08:34.430Z,15.38
2023-04-22T21:11:20.029Z,14.98
2023-04-22T21:14:05.797Z,14.55
2023-04-22T21:17:13.503Z,15.63
2023-04-22T21:19:59.485Z,16.95
2023-04-22T21:22:46.888Z,17.05
2023-04-22T21:25:33.113Z,16.83
2023-04-22T21:28:18.639Z,16.83
2023-04-22T21:31:04.515Z,18.08
2023-04-22T21:33:50.477Z,17.38
2023-04-22T21:36:36.441Z,18.85
2023-04-22T21:39:21.745Z,18.02
2023-04-22T21:42:10.491Z,19.05
2023-04-22T21:44:56.185Z,17.95
2023-04-22T21:47:41.990Z,17.73
2023-04-22T21:50:30.032Z,17.08
2023-04-22T21:53:15.704Z,18.13
2023-04-22T21:56:01.102Z,18.33
2023-04-22T21:58:46.820Z,18.38
2023-04-22T22:01:32.799Z,19.08
2023-04-22T22:04:18.218Z,17.70
2023-04-22T22:07:03.588Z,18.73
2023-04-22T22:09:49.034Z,19.48
2023-04-22T22:12:34.809Z,20.83
2023-04-22T22:15:20.284Z,20.67
2023-04-22T22:18:06.632Z,21.17
2023-04-22T22:20:51.836Z,20.23
2023-04-22T22:23:37.402Z,20.20
2023-04-22T22:26:22.946Z,22.90
2023-04-22T22:29:15.054Z,21.58
2023-04-22T22:32:00.376Z,23.63
2023-04-22T22:34:45.640Z,24.92
2023-04-22T22:37:31.368Z,26.15
2023-04-22T22:40:16.912Z,26.63
2023-04-22T22:43:02.248Z,27.27
2023-04-22T22:45:47.900Z,26.45
2023-04-22T22:48:33.416Z,26.35
2023-04-22T22:51:19.039Z,27.92
2023-04-22T22:54:05.098Z,28.80
2023-04-22T22:56:50.434Z,28.88
2023-04-22T22:59:37.177Z,29.65
2023-04-22T23:02:22.448Z,29.10
2023-04-22T23:05:10.666Z,27.70
2023-04-22T23:07:56.483Z,30.48
2023-04-22T23:10:41.947Z,31.20
2023-04-22T23:13:27.543Z,31.08
2023-04-22T23:16:12.922Z,30.75
2023-04-22T23:18:58.737Z,31.75
2023-04-22T23:21:45.491Z,32.45
2023-04-22T23:24:31.190Z,31.60
2023-04-22T23:27:17.438Z,33.28
2023-04-22T23:30:04.691Z,32.80
2023-04-22T23:32:51.804Z,32.88
2023-04-22T23:35:40.563Z,32.92
2023-04-22T23:38:27.422Z,36.40
2023-04-22T23:41:12.647Z,37.13
2023-04-22T23:43:57.840Z,41.42
2023-04-22T23:46:43.511Z,38.30
2023-04-22T23:49:29.495Z,37.80
2023-04-22T23:52:14.851Z,37.10
2023-04-22T23:55:00.748Z,37.10
2023-04-22T23:57:46.671Z,36.47
